»·PEaware :: N7825F KBFL-KMHV

N7825F :: KBFL-KMHV

FLIGHT INFORMATION

Flight Status: Arrived
Operator: Privately registered:
United States
More flights under this callsign
Pilot: Jim J. (24894)
Aircraft: CESSNA 172 SKYHAWK
(C172)
More flights by this aircraft type
Origin: KBFL Meadows
United States
Destination: KMHV Mojave
United States
More flights between these airports :: More routes between these airports
Route: DIRECT
File this flight plan on PilotEdge
Remarks: Cat6
Altitude:
(Current/Filed)
5,500ft
Speed:
(Current/Filed)
110kts
Departed: 13-Aug-19 01:58 PM
Arrived: 13-Aug-19 02:32 PM
Distance/Time
Traveled:
51nm/0:34
Distance/Time
To Go:
Arrived

Flight Plot

Page will automatically refresh every two minutes.


Map Options




Map Legend


Flown Route
Filed Route
Departure Airport
Arrival Airport
Navaid (VOR, NDB)
Fix

Horizontal Profiles

Position Reports

Time Latitude Longitude Heading Altitude Ground
Speed
13-Aug-19 13:43 35.429367 -119.046106 226 495ft 0kts
13-Aug-19 13:44 35.429367 -119.046106 226 495ft 0kts
13-Aug-19 13:45 35.429367 -119.046106 226 495ft 0kts
13-Aug-19 13:46 35.429367 -119.046106 226 495ft 0kts
13-Aug-19 13:47 35.429367 -119.046106 226 495ft 0kts
13-Aug-19 13:48 35.429367 -119.046106 226 495ft 0kts
13-Aug-19 13:49 35.429367 -119.046106 226 495ft 0kts
13-Aug-19 13:50 35.429367 -119.046106 226 495ft 0kts
13-Aug-19 13:51 35.429367 -119.046106 226 495ft 0kts
13-Aug-19 13:52 35.429367 -119.046106 226 495ft 0kts
13-Aug-19 13:53 35.429367 -119.046106 226 495ft 0kts
13-Aug-19 13:54 35.429367 -119.046106 226 495ft 0kts
13-Aug-19 13:55 35.427880 -119.046841 143 486ft 8kts
13-Aug-19 13:55 35.425914 -119.044613 190 481ft 10kts
13-Aug-19 13:57 35.425753 -119.044690 216 480ft 0kts
13-Aug-19 13:58 35.427459 -119.048454 316 481ft 61kts
13-Aug-19 13:58 35.438603 -119.061602 283 1188ft 79kts
13-Aug-19 14:00 35.418687 -119.072026 180 2384ft 88kts
13-Aug-19 14:00 35.410318 -119.049725 81 3122ft 97kts
13-Aug-19 14:02 35.410646 -119.008671 98 4081ft 102kts
13-Aug-19 14:03 35.401570 -118.976364 120 4874ft 98kts
13-Aug-19 14:03 35.392080 -118.950289 119 5471ft 100kts
13-Aug-19 14:04 35.378905 -118.914097 121 5641ft 121kts
13-Aug-19 14:05 35.363742 -118.875119 115 5608ft 133kts
13-Aug-19 14:06 35.346828 -118.834409 123 5490ft 135kts
13-Aug-19 14:07 35.326840 -118.795090 118 5451ft 130kts
13-Aug-19 14:08 35.310367 -118.756723 120 5587ft 125kts
13-Aug-19 14:09 35.294607 -118.717642 118 5638ft 131kts
13-Aug-19 14:10 35.277921 -118.675584 119 5586ft 132kts
13-Aug-19 14:11 35.261388 -118.634682 122 5619ft 128kts
13-Aug-19 14:12 35.243606 -118.595876 123 5655ft 130kts
13-Aug-19 14:13 35.224130 -118.557820 125 5728ft 129kts
13-Aug-19 14:14 35.204539 -118.518416 121 5694ft 134kts
13-Aug-19 14:15 35.184588 -118.478695 122 5605ft 138kts
13-Aug-19 14:16 35.161039 -118.442009 133 5608ft 132kts
13-Aug-19 14:17 35.138488 -118.405872 124 5576ft 125kts
13-Aug-19 14:18 35.123129 -118.366245 107 5562ft 124kts
13-Aug-19 14:19 35.112455 -118.326881 110 5631ft 123kts
13-Aug-19 14:20 35.105001 -118.285570 94 5650ft 123kts
13-Aug-19 14:21 35.102476 -118.243721 93 5716ft 123kts
13-Aug-19 14:22 35.098655 -118.201857 145 5348ft 120kts
13-Aug-19 14:23 35.070149 -118.190497 174 4498ft 104kts
13-Aug-19 14:24 35.071561 -118.200281 81 3846ft 105kts
13-Aug-19 14:25 35.063227 -118.172092 155 3718ft 88kts
13-Aug-19 14:26 35.044324 -118.158770 148 3725ft 67kts
13-Aug-19 14:27 35.032530 -118.140959 129 3775ft 61kts
13-Aug-19 14:28 35.018701 -118.122171 135 3752ft 83kts
13-Aug-19 14:29 35.029006 -118.108515 283 3339ft 82kts
13-Aug-19 14:30 35.041155 -118.126122 298 2861ft 60kts
13-Aug-19 14:31 35.047570 -118.134154 176 2687ft 0kts

Navigation Log

Ident Type
Flight plan parsing failed, navigation log unavailable